Meteo


Dettagli e Storico

Webcam

Webcam in aeroporto – Aggiornata ogni minuto


Osservatorio Meteorologico Cocomaro di Cona – Ferrara

NOAA IMAGE

NOAA

Windy

METAR

Aviation Digital Data Service (ADDS)

Output produced by METARs form (1152 UTC 20 November 2019)
found at http://www.aviationweather.gov/metar/data/
 
METAR text: LIPF 201055Z 28005KT 3500 BR SCT020 SCT025 12/10 Q1013 RMK OVC VIS MIN 3500
Conditions at: LIPF (FERRARA (AUT) , IT) observed 1055 UTC 20 November 2019
Temperature: 12.0°C (54°F)
Dewpoint: 10.0°C (50°F) [RH = 88%]
Pressure (altimeter): 29.91 inches Hg (1013.0 mb)
Winds: from the W (280 degrees) at 6 MPH (5 knots; 2.6 m/s)
Visibility: 2.17 miles (3.49 km)
Ceiling: at least 12,000 feet AGL
Clouds: scattered clouds at 2000 feet AGL
scattered clouds at 2500 feet AGL
Weather: BR  (mist)

METAR text: LIPE 201120Z 27008KT 8000 BKN009 BKN020 11/09 Q1013
Conditions at: LIPE (BOLOGNA/BORGO (A, IT) observed 1120 UTC 20 November 2019
Temperature: 11.0°C (52°F)
Dewpoint: 9.0°C (48°F) [RH = 87%]
Pressure (altimeter): 29.91 inches Hg (1013.0 mb)
Winds: from the W (270 degrees) at 9 MPH (8 knots; 4.1 m/s)
Visibility: 5 miles ( 8 km)
Ceiling: 900 feet AGL
Clouds: broken clouds at 900 feet AGL
broken clouds at 2000 feet AGL
Weather: no significant weather observed at this time

Forecast for: LIPE (BOLOGNA/BORGO (A, IT)
Text: TAF LIPE 201100Z 2012/2112 28010KT 6000 SCT020
Forecast period: 1200 to 2000 UTC 20 November 2019
Forecast type: FROM: standard forecast or significant change
Winds: from the W (280 degrees) at 12 MPH (10 knots; 5.1 m/s)
Visibility: 4 miles (6 km)
Ceiling: at least 12,000 feet AGL
Clouds: scattered clouds at 2000 feet AGL
Weather: no significant weather forecast for this period
Text: BECMG 2020/2022 VRB05KT 2000 BR
Forecast period: 2000 UTC 20 November 2019 to 1200 UTC 21 November 2019
Forecast type: BECOMING: Conditions expected to become as follows by 2200 UTC 20 November 2019
Winds: variable direction winds at 6 MPH (5 knots; 2.6 m/s)
Visibility: 1.24 miles (2.00 km)
Ceiling: at least 12,000 feet AGL
Clouds: scattered clouds at 2000 feet AGL
Weather: BR  (mist)
Text: TEMPO 2100/2106 0400 FG BKN014
Forecast period: 0000 to 0600 UTC 21 November 2019
Forecast type: TEMPORARY: The following changes expected for less than half the time period
Visibility: 0.25 miles (0.40 km)
Ceiling: 1400 feet AGL
Clouds: broken clouds at 1400 feet AGL
Weather: FG  (fog)

METAR text: LIPX 201120Z 24010KT 9999 FEW025 14/08 Q1012
Conditions at: LIPX (VILLAFRANCA(CV/M, IT) observed 1120 UTC 20 November 2019
Temperature: 14.0°C (57°F)
Dewpoint: 8.0°C (46°F) [RH = 67%]
Pressure (altimeter): 29.88 inches Hg (1012.0 mb)
Winds: from the WSW (240 degrees) at 12 MPH (10 knots; 5.1 m/s)
Visibility: 6 or more miles (10+ km)
Ceiling: at least 12,000 feet AGL
Clouds: few clouds at 2500 feet AGL
Weather: no significant weather observed at this time

Forecast for: LIPX (VILLAFRANCA(CV/M, IT)
Text: TAF LIPX 201100Z 2012/2021 VRB05KT 8000 BKN060
Forecast period: 1200 to 2100 UTC 20 November 2019
Forecast type: FROM: standard forecast or significant change
Winds: variable direction winds at 6 MPH (5 knots; 2.6 m/s)
Visibility: 5 miles (8 km)
Ceiling: 6000 feet AGL
Clouds: broken clouds at 6000 feet AGL
Weather: no significant weather forecast for this period
Text: TEMPO 2012/2016 26010KT
Forecast period: 1200 to 1600 UTC 20 November 2019
Forecast type: TEMPORARY: The following changes expected for less than half the time period
Winds: from the W (260 degrees) at 12 MPH (10 knots; 5.1 m/s)
Visibility: missing
Ceiling: unknown
Clouds: missing
Weather: no significant weather forecast for this period

METAR text: LIPZ 201120Z 31004KT 260V020 CAVOK 14/09 Q1011 NOSIG
Conditions at: LIPZ (VENEZIA/TESSERA , IT) observed 1120 UTC 20 November 2019
Temperature: 14.0°C (57°F)
Dewpoint: 9.0°C (48°F) [RH = 72%]
Pressure (altimeter): 29.85 inches Hg (1011.0 mb)
Winds: from the NW (310 degrees) at 5 MPH (4 knots; 2.1 m/s)
Visibility: 6 or more miles (10+ km)
Ceiling: ceiling and visibility are OK
Clouds: unknown
Weather: no significant weather observed at this time

Forecast for: LIPZ (VENEZIA/TESSERA , IT)
Text: TAF LIPZ 201100Z 2012/2118 VRB06KT 9999 SCT020
Forecast period: 1200 to 2100 UTC 20 November 2019
Forecast type: FROM: standard forecast or significant change
Winds: variable direction winds at 7 MPH (6 knots; 3.1 m/s)
Visibility: 6 or more miles 10+ km)
Ceiling: at least 12,000 feet AGL
Clouds: scattered clouds at 2000 feet AGL
Weather: no significant weather forecast for this period
Text: TEMPO 2012/2016 RA
Forecast period: 1200 to 1600 UTC 20 November 2019
Forecast type: TEMPORARY: The following changes expected for less than half the time period
Visibility: missing
Ceiling: unknown
Clouds: missing
Weather: RA  (moderate rain)
Text: BECMG 2021/2023 4000 BR BKN012
Forecast period: 2100 UTC 20 November 2019 to 1800 UTC 21 November 2019
Forecast type: BECOMING: Conditions expected to become as follows by 2300 UTC 20 November 2019
Winds: variable direction winds at 7 MPH (6 knots; 3.1 m/s)
Visibility: 2.49 miles (4.01 km)
Ceiling: 1200 feet AGL
Clouds: broken clouds at 1200 feet AGL
Weather: BR  (mist)
Text: TEMPO 2100/2106 0400 FG
Forecast period: 0000 to 0600 UTC 21 November 2019
Forecast type: TEMPORARY: The following changes expected for less than half the time period
Visibility: 0.25 miles (0.40 km)
Ceiling: unknown
Clouds: missing
Weather: FG  (fog)